sensor_id;sensor_type;location;lat;lon;timestamp;P1;durP1;ratioP1;P2;durP2;ratioP2
24557;SDS011;12726;49.148;8.582;2023-05-10T00:02:12;2.33;;;1.67;;
24557;SDS011;12726;49.148;8.582;2023-05-10T00:04:57;1.92;;;1.40;;
24557;SDS011;12726;49.148;8.582;2023-05-10T00:07:42;2.38;;;1.55;;
24557;SDS011;12726;49.148;8.582;2023-05-10T00:10:28;2.30;;;1.77;;
24557;SDS011;12726;49.148;8.582;2023-05-10T00:13:14;3.25;;;1.63;;
24557;SDS011;12726;49.148;8.582;2023-05-10T00:16:00;2.05;;;1.60;;
24557;SDS011;12726;49.148;8.582;2023-05-10T00:18:45;2.33;;;1.20;;
24557;SDS011;12726;49.148;8.582;2023-05-10T00:21:30;1.73;;;1.60;;
24557;SDS011;12726;49.148;8.582;2023-05-10T00:24:17;1.98;;;1.40;;
24557;SDS011;12726;49.148;8.582;2023-05-10T00:27:02;1.67;;;1.30;;
24557;SDS011;12726;49.148;8.582;2023-05-10T00:29:50;1.40;;;1.20;;
24557;SDS011;12726;49.148;8.582;2023-05-10T00:32:35;1.73;;;1.05;;
24557;SDS011;12726;49.148;8.582;2023-05-10T00:35:20;2.13;;;1.30;;
24557;SDS011;12726;49.148;8.582;2023-05-10T00:38:06;2.35;;;1.20;;
24557;SDS011;12726;49.148;8.582;2023-05-10T00:40:52;1.80;;;1.40;;
24557;SDS011;12726;49.148;8.582;2023-05-10T00:43:37;1.92;;;1.20;;
24557;SDS011;12726;49.148;8.582;2023-05-10T00:46:24;1.55;;;1.23;;
24557;SDS011;12726;49.148;8.582;2023-05-10T00:49:10;1.20;;;1.10;;
24557;SDS011;12726;49.148;8.582;2023-05-10T00:51:56;1.52;;;1.02;;
24557;SDS011;12726;49.148;8.582;2023-05-10T00:54:42;2.55;;;1.30;;
24557;SDS011;12726;49.148;8.582;2023-05-10T00:57:27;2.47;;;1.17;;
24557;SDS011;12726;49.148;8.582;2023-05-10T01:00:13;2.35;;;1.35;;
24557;SDS011;12726;49.148;8.582;2023-05-10T01:03:03;1.73;;;1.40;;
24557;SDS011;12726;49.148;8.582;2023-05-10T01:05:48;1.83;;;1.67;;
24557;SDS011;12726;49.148;8.582;2023-05-10T01:08:34;2.22;;;1.25;;
24557;SDS011;12726;49.148;8.582;2023-05-10T01:11:19;2.75;;;1.30;;
24557;SDS011;12726;49.148;8.582;2023-05-10T01:14:05;2.15;;;1.30;;
24557;SDS011;12726;49.148;8.582;2023-05-10T01:16:51;3.83;;;1.30;;
24557;SDS011;12726;49.148;8.582;2023-05-10T01:19:39;2.25;;;1.15;;
24557;SDS011;12726;49.148;8.582;2023-05-10T01:22:38;5.55;;;1.23;;
24557;SDS011;12726;49.148;8.582;2023-05-10T01:29:18;1.90;;;1.70;;
24557;SDS011;12726;49.148;8.582;2023-05-10T01:35:22;2.20;;;1.20;;
24557;SDS011;12726;49.148;8.582;2023-05-10T01:38:22;1.60;;;1.48;;
24557;SDS011;12726;49.148;8.582;2023-05-10T01:41:18;3.83;;;1.40;;
24557;SDS011;12726;49.148;8.582;2023-05-10T01:44:11;1.67;;;1.35;;
24557;SDS011;12726;49.148;8.582;2023-05-10T01:47:04;1.23;;;1.05;;
24557;SDS011;12726;49.148;8.582;2023-05-10T01:49:55;1.90;;;1.20;;
24557;SDS011;12726;49.148;8.582;2023-05-10T01:52:51;1.13;;;1.05;;
24557;SDS011;12726;49.148;8.582;2023-05-10T01:55:41;2.08;;;1.10;;
24557;SDS011;12726;49.148;8.582;2023-05-10T01:58:30;1.27;;;1.17;;
24557;SDS011;12726;49.148;8.582;2023-05-10T02:01:17;5.97;;;1.02;;
24557;SDS011;12726;49.148;8.582;2023-05-10T02:04:05;1.67;;;1.20;;
24557;SDS011;12726;49.148;8.582;2023-05-10T02:06:54;1.40;;;1.17;;
24557;SDS011;12726;49.148;8.582;2023-05-10T02:09:40;1.38;;;1.23;;
24557;SDS011;12726;49.148;8.582;2023-05-10T02:12:31;1.27;;;1.13;;
24557;SDS011;12726;49.148;8.582;2023-05-10T02:15:22;2.25;;;1.15;;
24557;SDS011;12726;49.148;8.582;2023-05-10T02:18:09;2.10;;;1.25;;
24557;SDS011;12726;49.148;8.582;2023-05-10T02:20:55;2.50;;;1.33;;
24557;SDS011;12726;49.148;8.582;2023-05-10T02:23:44;3.13;;;1.30;;
24557;SDS011;12726;49.148;8.582;2023-05-10T02:26:30;1.40;;;1.30;;
24557;SDS011;12726;49.148;8.582;2023-05-10T02:29:17;2.13;;;1.15;;
24557;SDS011;12726;49.148;8.582;2023-05-10T02:32:03;2.35;;;1.75;;
24557;SDS011;12726;49.148;8.582;2023-05-10T02:34:49;1.75;;;1.15;;
24557;SDS011;12726;49.148;8.582;2023-05-10T02:37:35;1.98;;;1.77;;
24557;SDS011;12726;49.148;8.582;2023-05-10T02:40:23;2.13;;;1.50;;
24557;SDS011;12726;49.148;8.582;2023-05-10T02:43:12;1.88;;;1.70;;
24557;SDS011;12726;49.148;8.582;2023-05-10T02:45:59;1.60;;;1.50;;
24557;SDS011;12726;49.148;8.582;2023-05-10T02:48:44;3.33;;;2.03;;
24557;SDS011;12726;49.148;8.582;2023-05-10T02:51:30;5.35;;;1.88;;
24557;SDS011;12726;49.148;8.582;2023-05-10T02:54:20;2.53;;;1.88;;
24557;SDS011;12726;49.148;8.582;2023-05-10T02:57:15;2.30;;;2.10;;
24557;SDS011;12726;49.148;8.582;2023-05-10T03:00:03;3.63;;;2.28;;
24557;SDS011;12726;49.148;8.582;2023-05-10T03:02:49;1.98;;;1.77;;
24557;SDS011;12726;49.148;8.582;2023-05-10T03:05:35;3.83;;;2.40;;
24557;SDS011;12726;49.148;8.582;2023-05-10T03:08:20;4.03;;;2.33;;
24557;SDS011;12726;49.148;8.582;2023-05-10T03:11:13;3.88;;;2.75;;
24557;SDS011;12726;49.148;8.582;2023-05-10T03:14:13;2.93;;;2.53;;
24557;SDS011;12726;49.148;8.582;2023-05-10T03:17:06;3.42;;;2.85;;
24557;SDS011;12726;49.148;8.582;2023-05-10T03:19:57;4.55;;;3.22;;
24557;SDS011;12726;49.148;8.582;2023-05-10T03:22:50;4.43;;;2.70;;
24557;SDS011;12726;49.148;8.582;2023-05-10T03:25:37;3.50;;;2.85;;
24557;SDS011;12726;49.148;8.582;2023-05-10T03:28:24;6.30;;;3.13;;
24557;SDS011;12726;49.148;8.582;2023-05-10T03:31:13;3.40;;;3.10;;
24557;SDS011;12726;49.148;8.582;2023-05-10T03:33:58;3.42;;;3.13;;
24557;SDS011;12726;49.148;8.582;2023-05-10T03:36:44;3.85;;;2.97;;
24557;SDS011;12726;49.148;8.582;2023-05-10T03:39:29;4.13;;;3.35;;
24557;SDS011;12726;49.148;8.582;2023-05-10T03:42:14;3.95;;;3.55;;
24557;SDS011;12726;49.148;8.582;2023-05-10T03:45:01;3.70;;;3.40;;
24557;SDS011;12726;49.148;8.582;2023-05-10T03:47:48;4.25;;;3.83;;
24557;SDS011;12726;49.148;8.582;2023-05-10T03:50:33;5.95;;;3.88;;
24557;SDS011;12726;49.148;8.582;2023-05-10T03:53:19;4.32;;;3.92;;
24557;SDS011;12726;49.148;8.582;2023-05-10T03:56:04;4.55;;;4.15;;
24557;SDS011;12726;49.148;8.582;2023-05-10T03:58:50;5.10;;;4.47;;
24557;SDS011;12726;49.148;8.582;2023-05-10T04:01:35;4.88;;;4.38;;
24557;SDS011;12726;49.148;8.582;2023-05-10T04:04:22;5.85;;;4.63;;
24557;SDS011;12726;49.148;8.582;2023-05-10T04:07:07;6.93;;;4.43;;
24557;SDS011;12726;49.148;8.582;2023-05-10T04:09:54;9.63;;;4.90;;
24557;SDS011;12726;49.148;8.582;2023-05-10T04:12:39;6.43;;;4.60;;
24557;SDS011;12726;49.148;8.582;2023-05-10T04:15:25;5.38;;;4.35;;
24557;SDS011;12726;49.148;8.582;2023-05-10T04:18:10;4.68;;;4.05;;
24557;SDS011;12726;49.148;8.582;2023-05-10T04:20:58;5.88;;;4.18;;
24557;SDS011;12726;49.148;8.582;2023-05-10T04:23:43;5.38;;;4.18;;
24557;SDS011;12726;49.148;8.582;2023-05-10T04:26:29;5.05;;;4.35;;
24557;SDS011;12726;49.148;8.582;2023-05-10T04:29:15;5.82;;;4.15;;
24557;SDS011;12726;49.148;8.582;2023-05-10T04:32:00;6.38;;;4.00;;
24557;SDS011;12726;49.148;8.582;2023-05-10T04:34:45;4.95;;;4.20;;
24557;SDS011;12726;49.148;8.582;2023-05-10T04:37:33;3.85;;;3.42;;
24557;SDS011;12726;49.148;8.582;2023-05-10T04:40:21;5.43;;;4.40;;
24557;SDS011;12726;49.148;8.582;2023-05-10T04:43:06;7.50;;;3.92;;
24557;SDS011;12726;49.148;8.582;2023-05-10T04:45:52;6.72;;;4.50;;
24557;SDS011;12726;49.148;8.582;2023-05-10T04:48:37;4.22;;;3.33;;
24557;SDS011;12726;49.148;8.582;2023-05-10T04:51:22;6.07;;;3.90;;
24557;SDS011;12726;49.148;8.582;2023-05-10T04:54:09;4.70;;;3.83;;
24557;SDS011;12726;49.148;8.582;2023-05-10T04:56:54;9.18;;;4.22;;
24557;SDS011;12726;49.148;8.582;2023-05-10T04:59:40;9.00;;;4.70;;
24557;SDS011;12726;49.148;8.582;2023-05-10T05:02:26;8.68;;;5.10;;
24557;SDS011;12726;49.148;8.582;2023-05-10T05:05:11;5.53;;;4.25;;
24557;SDS011;12726;49.148;8.582;2023-05-10T05:07:56;5.72;;;4.28;;
24557;SDS011;12726;49.148;8.582;2023-05-10T05:10:43;7.07;;;5.25;;
24557;SDS011;12726;49.148;8.582;2023-05-10T05:13:28;6.15;;;4.03;;
24557;SDS011;12726;49.148;8.582;2023-05-10T05:16:14;5.93;;;4.30;;
24557;SDS011;12726;49.148;8.582;2023-05-10T05:19:00;7.35;;;4.80;;
24557;SDS011;12726;49.148;8.582;2023-05-10T05:21:45;4.68;;;4.18;;
24557;SDS011;12726;49.148;8.582;2023-05-10T05:24:34;5.88;;;4.07;;
24557;SDS011;12726;49.148;8.582;2023-05-10T05:27:21;6.15;;;4.55;;
24557;SDS011;12726;49.148;8.582;2023-05-10T05:30:08;5.88;;;4.85;;
24557;SDS011;12726;49.148;8.582;2023-05-10T05:32:54;5.22;;;4.57;;
24557;SDS011;12726;49.148;8.582;2023-05-10T05:35:40;5.00;;;4.50;;
24557;SDS011;12726;49.148;8.582;2023-05-10T05:38:26;4.53;;;4.13;;
24557;SDS011;12726;49.148;8.582;2023-05-10T05:41:11;4.90;;;3.38;;
24557;SDS011;12726;49.148;8.582;2023-05-10T05:43:58;4.05;;;3.45;;
24557;SDS011;12726;49.148;8.582;2023-05-10T05:46:43;4.70;;;4.30;;
24557;SDS011;12726;49.148;8.582;2023-05-10T05:49:29;5.60;;;4.47;;
24557;SDS011;12726;49.148;8.582;2023-05-10T05:52:14;5.45;;;4.20;;
24557;SDS011;12726;49.148;8.582;2023-05-10T05:54:59;3.50;;;3.20;;
24557;SDS011;12726;49.148;8.582;2023-05-10T05:57:45;3.85;;;3.40;;
24557;SDS011;12726;49.148;8.582;2023-05-10T06:00:32;4.10;;;3.70;;
24557;SDS011;12726;49.148;8.582;2023-05-10T06:03:17;6.13;;;3.78;;
24557;SDS011;12726;49.148;8.582;2023-05-10T06:06:02;4.57;;;3.45;;
24557;SDS011;12726;49.148;8.582;2023-05-10T06:08:48;4.22;;;3.83;;
24557;SDS011;12726;49.148;8.582;2023-05-10T06:11:33;4.07;;;3.75;;
24557;SDS011;12726;49.148;8.582;2023-05-10T06:14:19;4.20;;;3.80;;
24557;SDS011;12726;49.148;8.582;2023-05-10T06:17:06;4.35;;;3.50;;
24557;SDS011;12726;49.148;8.582;2023-05-10T06:19:51;5.97;;;4.10;;
24557;SDS011;12726;49.148;8.582;2023-05-10T06:22:37;3.75;;;3.25;;
24557;SDS011;12726;49.148;8.582;2023-05-10T06:25:22;5.07;;;3.30;;
24557;SDS011;12726;49.148;8.582;2023-05-10T06:28:08;4.05;;;3.08;;
24557;SDS011;12726;49.148;8.582;2023-05-10T06:30:53;4.90;;;2.90;;
24557;SDS011;12726;49.148;8.582;2023-05-10T06:33:40;3.45;;;2.63;;
24557;SDS011;12726;49.148;8.582;2023-05-10T06:36:25;3.05;;;2.60;;
24557;SDS011;12726;49.148;8.582;2023-05-10T06:39:10;6.05;;;2.67;;
24557;SDS011;12726;49.148;8.582;2023-05-10T06:41:56;3.25;;;2.00;;
24557;SDS011;12726;49.148;8.582;2023-05-10T06:44:41;3.10;;;2.10;;
24557;SDS011;12726;49.148;8.582;2023-05-10T06:47:27;3.35;;;2.03;;
24557;SDS011;12726;49.148;8.582;2023-05-10T06:50:14;2.47;;;2.25;;
24557;SDS011;12726;49.148;8.582;2023-05-10T06:52:59;5.88;;;2.08;;
24557;SDS011;12726;49.148;8.582;2023-05-10T06:55:45;2.08;;;1.77;;
24557;SDS011;12726;49.148;8.582;2023-05-10T06:58:30;1.75;;;1.60;;
24557;SDS011;12726;49.148;8.582;2023-05-10T07:01:16;2.20;;;1.70;;
24557;SDS011;12726;49.148;8.582;2023-05-10T07:04:01;1.85;;;1.58;;
24557;SDS011;12726;49.148;8.582;2023-05-10T07:06:48;3.95;;;1.45;;
24557;SDS011;12726;49.148;8.582;2023-05-10T07:09:36;1.88;;;1.40;;
24557;SDS011;12726;49.148;8.582;2023-05-10T07:12:22;4.13;;;1.60;;
24557;SDS011;12726;49.148;8.582;2023-05-10T07:15:07;1.60;;;1.50;;
24557;SDS011;12726;49.148;8.582;2023-05-10T07:17:54;4.65;;;1.30;;
24557;SDS011;12726;49.148;8.582;2023-05-10T07:20:39;1.98;;;1.10;;
24557;SDS011;12726;49.148;8.582;2023-05-10T07:23:26;1.10;;;1.00;;
24557;SDS011;12726;49.148;8.582;2023-05-10T07:26:11;2.45;;;1.27;;
24557;SDS011;12726;49.148;8.582;2023-05-10T07:28:58;1.98;;;1.45;;
24557;SDS011;12726;49.148;8.582;2023-05-10T07:31:44;1.98;;;1.15;;
24557;SDS011;12726;49.148;8.582;2023-05-10T07:34:29;2.90;;;0.90;;
24557;SDS011;12726;49.148;8.582;2023-05-10T07:37:15;1.33;;;0.80;;
24557;SDS011;12726;49.148;8.582;2023-05-10T07:40:02;1.70;;;1.20;;
24557;SDS011;12726;49.148;8.582;2023-05-10T07:42:47;2.03;;;0.80;;
24557;SDS011;12726;49.148;8.582;2023-05-10T07:45:33;1.15;;;0.90;;
24557;SDS011;12726;49.148;8.582;2023-05-10T07:48:18;1.33;;;0.80;;
24557;SDS011;12726;49.148;8.582;2023-05-10T07:51:03;2.75;;;0.80;;
24557;SDS011;12726;49.148;8.582;2023-05-10T07:53:50;0.77;;;0.77;;
24557;SDS011;12726;49.148;8.582;2023-05-10T07:56:37;1.33;;;1.15;;
24557;SDS011;12726;49.148;8.582;2023-05-10T07:59:23;3.30;;;0.93;;
24557;SDS011;12726;49.148;8.582;2023-05-10T08:02:08;2.78;;;1.00;;
24557;SDS011;12726;49.148;8.582;2023-05-10T08:04:54;1.52;;;0.98;;
24557;SDS011;12726;49.148;8.582;2023-05-10T08:07:39;2.92;;;1.63;;
24557;SDS011;12726;49.148;8.582;2023-05-10T08:10:25;2.10;;;0.90;;
24557;SDS011;12726;49.148;8.582;2023-05-10T08:13:11;1.23;;;1.00;;
24557;SDS011;12726;49.148;8.582;2023-05-10T08:15:56;1.17;;;1.05;;
24557;SDS011;12726;49.148;8.582;2023-05-10T08:18:42;1.63;;;0.73;;
24557;SDS011;12726;49.148;8.582;2023-05-10T08:21:28;0.70;;;0.70;;
24557;SDS011;12726;49.148;8.582;2023-05-10T08:24:15;1.20;;;0.93;;
24557;SDS011;12726;49.148;8.582;2023-05-10T08:27:00;1.60;;;1.10;;
24557;SDS011;12726;49.148;8.582;2023-05-10T08:29:47;6.70;;;1.92;;
24557;SDS011;12726;49.148;8.582;2023-05-10T08:32:32;1.30;;;1.10;;
24557;SDS011;12726;49.148;8.582;2023-05-10T08:35:18;2.67;;;1.00;;
24557;SDS011;12726;49.148;8.582;2023-05-10T08:38:06;0.88;;;0.82;;
24557;SDS011;12726;49.148;8.582;2023-05-10T08:40:52;0.93;;;0.90;;
24557;SDS011;12726;49.148;8.582;2023-05-10T08:43:40;1.58;;;1.10;;
24557;SDS011;12726;49.148;8.582;2023-05-10T08:46:31;2.05;;;0.90;;
24557;SDS011;12726;49.148;8.582;2023-05-10T08:49:20;3.85;;;1.00;;
24557;SDS011;12726;49.148;8.582;2023-05-10T08:52:07;1.10;;;1.00;;
24557;SDS011;12726;49.148;8.582;2023-05-10T08:54:52;1.48;;;0.95;;
24557;SDS011;12726;49.148;8.582;2023-05-10T08:57:38;2.28;;;0.77;;
24557;SDS011;12726;49.148;8.582;2023-05-10T09:00:23;0.70;;;0.70;;
24557;SDS011;12726;49.148;8.582;2023-05-10T09:03:10;1.35;;;0.70;;
24557;SDS011;12726;49.148;8.582;2023-05-10T09:06:00;1.85;;;0.80;;
24557;SDS011;12726;49.148;8.582;2023-05-10T09:08:45;1.17;;;0.93;;
24557;SDS011;12726;49.148;8.582;2023-05-10T09:11:31;1.45;;;0.80;;
24557;SDS011;12726;49.148;8.582;2023-05-10T09:14:16;1.30;;;0.75;;
24557;SDS011;12726;49.148;8.582;2023-05-10T09:17:03;0.70;;;0.70;;
24557;SDS011;12726;49.148;8.582;2023-05-10T09:19:50;1.30;;;0.65;;
24557;SDS011;12726;49.148;8.582;2023-05-10T09:22:42;0.60;;;0.60;;
24557;SDS011;12726;49.148;8.582;2023-05-10T09:25:27;0.40;;;0.40;;
24557;SDS011;12726;49.148;8.582;2023-05-10T09:28:13;1.08;;;0.60;;
24557;SDS011;12726;49.148;8.582;2023-05-10T09:30:58;1.55;;;0.50;;
24557;SDS011;12726;49.148;8.582;2023-05-10T09:33:44;3.13;;;0.55;;
24557;SDS011;12726;49.148;8.582;2023-05-10T09:36:31;2.92;;;0.80;;
24557;SDS011;12726;49.148;8.582;2023-05-10T09:39:16;1.88;;;0.70;;
24557;SDS011;12726;49.148;8.582;2023-05-10T09:42:02;0.70;;;0.70;;
24557;SDS011;12726;49.148;8.582;2023-05-10T09:44:49;2.00;;;0.63;;
24557;SDS011;12726;49.148;8.582;2023-05-10T09:47:35;0.50;;;0.50;;
24557;SDS011;12726;49.148;8.582;2023-05-10T09:50:20;5.03;;;0.80;;
24557;SDS011;12726;49.148;8.582;2023-05-10T09:53:08;1.17;;;0.65;;
24557;SDS011;12726;49.148;8.582;2023-05-10T09:55:53;3.05;;;0.98;;
24557;SDS011;12726;49.148;8.582;2023-05-10T09:58:39;1.23;;;0.73;;
24557;SDS011;12726;49.148;8.582;2023-05-10T10:01:25;0.77;;;0.50;;
24557;SDS011;12726;49.148;8.582;2023-05-10T10:04:11;1.88;;;0.60;;
24557;SDS011;12726;49.148;8.582;2023-05-10T10:07:00;1.25;;;0.60;;
24557;SDS011;12726;49.148;8.582;2023-05-10T10:09:47;0.43;;;0.43;;
24557;SDS011;12726;49.148;8.582;2023-05-10T10:12:33;1.30;;;0.50;;
24557;SDS011;12726;49.148;8.582;2023-05-10T10:15:19;2.22;;;0.50;;
24557;SDS011;12726;49.148;8.582;2023-05-10T10:18:05;1.13;;;0.70;;
24557;SDS011;12726;49.148;8.582;2023-05-10T10:20:52;0.77;;;0.75;;
24557;SDS011;12726;49.148;8.582;2023-05-10T10:23:38;1.50;;;0.70;;
24557;SDS011;12726;49.148;8.582;2023-05-10T10:26:25;1.13;;;0.57;;
24557;SDS011;12726;49.148;8.582;2023-05-10T10:29:14;0.75;;;0.60;;
24557;SDS011;12726;49.148;8.582;2023-05-10T10:32:07;1.00;;;0.63;;
24557;SDS011;12726;49.148;8.582;2023-05-10T10:35:04;1.15;;;0.50;;
24557;SDS011;12726;49.148;8.582;2023-05-10T10:37:51;0.90;;;0.60;;
24557;SDS011;12726;49.148;8.582;2023-05-10T10:40:36;1.85;;;0.60;;
24557;SDS011;12726;49.148;8.582;2023-05-10T10:43:24;1.42;;;0.65;;
24557;SDS011;12726;49.148;8.582;2023-05-10T10:46:11;0.73;;;0.70;;
24557;SDS011;12726;49.148;8.582;2023-05-10T10:49:08;0.98;;;0.70;;
24557;SDS011;12726;49.148;8.582;2023-05-10T10:52:12;1.40;;;0.40;;
24557;SDS011;12726;49.148;8.582;2023-05-10T10:55:00;1.85;;;0.50;;
24557;SDS011;12726;49.148;8.582;2023-05-10T10:57:47;0.68;;;0.60;;
24557;SDS011;12726;49.148;8.582;2023-05-10T11:00:37;2.40;;;0.50;;
24557;SDS011;12726;49.148;8.582;2023-05-10T11:03:24;2.72;;;0.70;;
24557;SDS011;12726;49.148;8.582;2023-05-10T11:06:09;1.48;;;0.70;;
24557;SDS011;12726;49.148;8.582;2023-05-10T11:08:54;1.38;;;0.60;;
24557;SDS011;12726;49.148;8.582;2023-05-10T11:11:50;0.73;;;0.70;;
24557;SDS011;12726;49.148;8.582;2023-05-10T11:14:38;1.77;;;0.70;;
24557;SDS011;12726;49.148;8.582;2023-05-10T11:17:26;1.23;;;0.60;;
24557;SDS011;12726;49.148;8.582;2023-05-10T11:20:13;1.85;;;0.77;;
24557;SDS011;12726;49.148;8.582;2023-05-10T11:23:10;0.80;;;0.77;;
24557;SDS011;12726;49.148;8.582;2023-05-10T11:25:59;1.92;;;0.90;;
24557;SDS011;12726;49.148;8.582;2023-05-10T11:28:46;2.67;;;1.02;;
24557;SDS011;12726;49.148;8.582;2023-05-10T11:31:32;3.28;;;0.88;;
24557;SDS011;12726;49.148;8.582;2023-05-10T11:34:26;2.00;;;0.90;;
24557;SDS011;12726;49.148;8.582;2023-05-10T11:37:13;2.85;;;0.80;;
24557;SDS011;12726;49.148;8.582;2023-05-10T11:39:58;1.48;;;0.70;;
24557;SDS011;12726;49.148;8.582;2023-05-10T11:42:44;2.03;;;0.60;;
24557;SDS011;12726;49.148;8.582;2023-05-10T11:45:31;4.15;;;0.85;;
24557;SDS011;12726;49.148;8.582;2023-05-10T11:48:16;1.20;;;0.70;;
24557;SDS011;12726;49.148;8.582;2023-05-10T11:51:07;1.67;;;0.80;;
24557;SDS011;12726;49.148;8.582;2023-05-10T11:53:54;3.00;;;0.70;;
24557;SDS011;12726;49.148;8.582;2023-05-10T11:56:40;1.90;;;0.80;;
24557;SDS011;12726;49.148;8.582;2023-05-10T11:59:25;3.13;;;0.60;;
24557;SDS011;12726;49.148;8.582;2023-05-10T12:02:11;4.72;;;0.70;;
24557;SDS011;12726;49.148;8.582;2023-05-10T12:04:57;2.92;;;0.73;;
24557;SDS011;12726;49.148;8.582;2023-05-10T12:07:43;3.90;;;0.88;;
24557;SDS011;12726;49.148;8.582;2023-05-10T12:10:29;1.90;;;0.73;;
24557;SDS011;12726;49.148;8.582;2023-05-10T12:13:19;1.33;;;0.80;;
24557;SDS011;12726;49.148;8.582;2023-05-10T12:16:15;5.15;;;0.98;;
24557;SDS011;12726;49.148;8.582;2023-05-10T12:19:02;2.65;;;0.63;;
24557;SDS011;12726;49.148;8.582;2023-05-10T12:21:47;4.22;;;1.25;;
24557;SDS011;12726;49.148;8.582;2023-05-10T12:24:36;6.40;;;1.38;;
24557;SDS011;12726;49.148;8.582;2023-05-10T12:27:21;2.67;;;1.00;;
24557;SDS011;12726;49.148;8.582;2023-05-10T12:30:07;3.00;;;0.70;;
24557;SDS011;12726;49.148;8.582;2023-05-10T12:32:53;2.30;;;0.77;;
24557;SDS011;12726;49.148;8.582;2023-05-10T12:35:44;1.98;;;0.80;;
24557;SDS011;12726;49.148;8.582;2023-05-10T12:38:32;2.22;;;0.60;;
24557;SDS011;12726;49.148;8.582;2023-05-10T12:41:19;3.78;;;0.77;;
24557;SDS011;12726;49.148;8.582;2023-05-10T12:44:05;4.00;;;0.82;;
24557;SDS011;12726;49.148;8.582;2023-05-10T12:46:50;1.92;;;0.75;;
24557;SDS011;12726;49.148;8.582;2023-05-10T12:49:35;3.53;;;0.80;;
24557;SDS011;12726;49.148;8.582;2023-05-10T12:52:21;1.02;;;0.70;;
24557;SDS011;12726;49.148;8.582;2023-05-10T12:55:06;0.85;;;0.60;;
24557;SDS011;12726;49.148;8.582;2023-05-10T12:57:54;4.28;;;0.88;;
24557;SDS011;12726;49.148;8.582;2023-05-10T13:00:39;1.55;;;0.70;;
24557;SDS011;12726;49.148;8.582;2023-05-10T13:03:24;1.60;;;0.75;;
24557;SDS011;12726;49.148;8.582;2023-05-10T13:06:10;3.83;;;1.00;;
24557;SDS011;12726;49.148;8.582;2023-05-10T13:08:56;1.55;;;0.80;;
24557;SDS011;12726;49.148;8.582;2023-05-10T13:11:42;2.25;;;0.75;;
24557;SDS011;12726;49.148;8.582;2023-05-10T13:14:29;1.73;;;0.90;;
24557;SDS011;12726;49.148;8.582;2023-05-10T13:17:15;1.35;;;1.10;;
24557;SDS011;12726;49.148;8.582;2023-05-10T13:20:00;7.35;;;0.90;;
24557;SDS011;12726;49.148;8.582;2023-05-10T13:22:46;4.43;;;0.80;;
24557;SDS011;12726;49.148;8.582;2023-05-10T13:25:31;0.82;;;0.73;;
24557;SDS011;12726;49.148;8.582;2023-05-10T13:28:17;2.50;;;0.95;;
24557;SDS011;12726;49.148;8.582;2023-05-10T13:31:04;2.60;;;0.93;;
24557;SDS011;12726;49.148;8.582;2023-05-10T13:33:49;2.60;;;0.80;;
24557;SDS011;12726;49.148;8.582;2023-05-10T13:36:35;2.67;;;0.90;;
24557;SDS011;12726;49.148;8.582;2023-05-10T13:39:20;3.50;;;0.90;;
24557;SDS011;12726;49.148;8.582;2023-05-10T13:42:05;4.25;;;1.02;;
24557;SDS011;12726;49.148;8.582;2023-05-10T13:44:50;2.75;;;0.85;;
24557;SDS011;12726;49.148;8.582;2023-05-10T13:47:37;1.45;;;0.75;;
24557;SDS011;12726;49.148;8.582;2023-05-10T13:50:23;1.40;;;0.77;;
24557;SDS011;12726;49.148;8.582;2023-05-10T13:53:08;1.08;;;0.70;;
24557;SDS011;12726;49.148;8.582;2023-05-10T13:55:54;0.70;;;0.70;;
24557;SDS011;12726;49.148;8.582;2023-05-10T13:58:39;2.47;;;0.82;;
24557;SDS011;12726;49.148;8.582;2023-05-10T14:01:25;3.10;;;0.60;;
24557;SDS011;12726;49.148;8.582;2023-05-10T14:04:11;1.73;;;0.80;;
24557;SDS011;12726;49.148;8.582;2023-05-10T14:06:57;0.82;;;0.73;;
24557;SDS011;12726;49.148;8.582;2023-05-10T14:09:42;2.78;;;0.60;;
24557;SDS011;12726;49.148;8.582;2023-05-10T14:12:28;0.85;;;0.50;;
24557;SDS011;12726;49.148;8.582;2023-05-10T14:15:13;0.73;;;0.40;;
24557;SDS011;12726;49.148;8.582;2023-05-10T14:17:58;3.92;;;0.70;;
24557;SDS011;12726;49.148;8.582;2023-05-10T14:20:45;0.38;;;0.35;;
24557;SDS011;12726;49.148;8.582;2023-05-10T14:23:30;0.50;;;0.40;;
24557;SDS011;12726;49.148;8.582;2023-05-10T14:26:16;1.33;;;0.40;;
24557;SDS011;12726;49.148;8.582;2023-05-10T14:29:01;2.30;;;0.40;;
24557;SDS011;12726;49.148;8.582;2023-05-10T14:31:46;2.88;;;0.40;;
24557;SDS011;12726;49.148;8.582;2023-05-10T14:34:32;1.98;;;0.40;;
24557;SDS011;12726;49.148;8.582;2023-05-10T14:37:18;1.67;;;0.55;;
24557;SDS011;12726;49.148;8.582;2023-05-10T14:40:03;1.45;;;0.47;;
24557;SDS011;12726;49.148;8.582;2023-05-10T14:42:51;1.00;;;0.30;;
24557;SDS011;12726;49.148;8.582;2023-05-10T14:45:36;2.10;;;0.70;;
24557;SDS011;12726;49.148;8.582;2023-05-10T14:48:22;0.30;;;0.30;;
24557;SDS011;12726;49.148;8.582;2023-05-10T14:51:07;0.90;;;0.45;;
24557;SDS011;12726;49.148;8.582;2023-05-10T14:53:53;0.40;;;0.30;;
24557;SDS011;12726;49.148;8.582;2023-05-10T14:56:39;1.02;;;0.50;;
24557;SDS011;12726;49.148;8.582;2023-05-10T14:59:25;0.68;;;0.40;;
24557;SDS011;12726;49.148;8.582;2023-05-10T15:02:10;0.55;;;0.47;;
24557;SDS011;12726;49.148;8.582;2023-05-10T15:04:56;2.58;;;0.60;;
24557;SDS011;12726;49.148;8.582;2023-05-10T15:07:42;0.43;;;0.35;;
24557;SDS011;12726;49.148;8.582;2023-05-10T15:10:29;1.15;;;0.30;;
24557;SDS011;12726;49.148;8.582;2023-05-10T15:13:14;0.98;;;0.50;;
24557;SDS011;12726;49.148;8.582;2023-05-10T15:15:59;1.10;;;0.45;;
24557;SDS011;12726;49.148;8.582;2023-05-10T15:18:44;2.22;;;0.40;;
24557;SDS011;12726;49.148;8.582;2023-05-10T15:21:30;0.32;;;0.30;;
24557;SDS011;12726;49.148;8.582;2023-05-10T15:24:18;3.00;;;0.30;;
24557;SDS011;12726;49.148;8.582;2023-05-10T15:27:05;0.73;;;0.40;;
24557;SDS011;12726;49.148;8.582;2023-05-10T15:29:51;0.90;;;0.40;;
24557;SDS011;12726;49.148;8.582;2023-05-10T15:32:36;1.92;;;0.50;;
24557;SDS011;12726;49.148;8.582;2023-05-10T15:35:23;2.17;;;0.50;;
24557;SDS011;12726;49.148;8.582;2023-05-10T15:38:08;1.98;;;0.50;;
24557;SDS011;12726;49.148;8.582;2023-05-10T15:40:55;3.47;;;0.60;;
24557;SDS011;12726;49.148;8.582;2023-05-10T15:43:42;0.85;;;0.52;;
24557;SDS011;12726;49.148;8.582;2023-05-10T15:46:28;3.20;;;0.70;;
24557;SDS011;12726;49.148;8.582;2023-05-10T15:49:13;2.05;;;0.55;;
24557;SDS011;12726;49.148;8.582;2023-05-10T15:51:59;3.65;;;0.50;;
24557;SDS011;12726;49.148;8.582;2023-05-10T15:54:44;1.60;;;0.47;;
24557;SDS011;12726;49.148;8.582;2023-05-10T15:57:29;2.67;;;0.70;;
24557;SDS011;12726;49.148;8.582;2023-05-10T16:00:16;2.20;;;0.55;;
24557;SDS011;12726;49.148;8.582;2023-05-10T16:03:02;0.73;;;0.45;;
24557;SDS011;12726;49.148;8.582;2023-05-10T16:05:47;0.82;;;0.40;;
24557;SDS011;12726;49.148;8.582;2023-05-10T16:08:33;1.58;;;0.40;;
24557;SDS011;12726;49.148;8.582;2023-05-10T16:11:18;0.32;;;0.32;;
24557;SDS011;12726;49.148;8.582;2023-05-10T16:14:04;0.70;;;0.40;;
24557;SDS011;12726;49.148;8.582;2023-05-10T16:16:50;1.52;;;0.80;;
24557;SDS011;12726;49.148;8.582;2023-05-10T16:19:36;1.60;;;0.60;;
24557;SDS011;12726;49.148;8.582;2023-05-10T16:22:21;0.38;;;0.30;;
24557;SDS011;12726;49.148;8.582;2023-05-10T16:25:10;0.93;;;0.30;;
24557;SDS011;12726;49.148;8.582;2023-05-10T16:27:55;2.03;;;0.30;;
24557;SDS011;12726;49.148;8.582;2023-05-10T16:30:40;1.85;;;0.30;;
24557;SDS011;12726;49.148;8.582;2023-05-10T16:33:27;2.35;;;0.43;;
24557;SDS011;12726;49.148;8.582;2023-05-10T16:36:12;0.75;;;0.45;;
24557;SDS011;12726;49.148;8.582;2023-05-10T16:38:57;1.30;;;0.50;;
24557;SDS011;12726;49.148;8.582;2023-05-10T16:41:43;0.40;;;0.40;;
24557;SDS011;12726;49.148;8.582;2023-05-10T16:44:28;1.02;;;0.30;;
24557;SDS011;12726;49.148;8.582;2023-05-10T16:47:13;0.40;;;0.28;;
24557;SDS011;12726;49.148;8.582;2023-05-10T16:50:00;1.30;;;0.28;;
24557;SDS011;12726;49.148;8.582;2023-05-10T16:52:46;0.40;;;0.30;;